DLH1198 EDDF-LSZH
Flight info
| Callsign | DLH1198 |
|---|---|
| Flight time | 0h 35m |
| Altitude | 23000 |
| Route | ANEKI2L/18 ANEKI Y163 NEKLO Y171 INKAM T725 LAMGO T721 RILAX |
| Aircraft | A320/M-SDE3FGHIRWY/LB1 |
Departure
| Time | 2026-05-04 16:48 |
|---|---|
| Airport | Frankfurt Main Airport (EDDF) |
Arrival
| Time | 2026-05-04 17:23 |
|---|---|
| Airport | Zürich Airport (LSZH) |
| Time | Latitude | Longitude | Altitude | Speed | Heading |
|---|---|---|---|---|---|
| 2026-05-04 15:54 | 50.04704 | 8.56846 | 356 ft | 0 kts | 294° |
| 2026-05-04 16:33 | 50.04688 | 8.56900 | 358 ft | 2 kts | 295° |
| 2026-05-04 16:33 | 50.04695 | 8.56963 | 363 ft | 4 kts | 206° |
| 2026-05-04 16:34 | 50.04662 | 8.56940 | 361 ft | 4 kts | 204° |
| 2026-05-04 16:34 | 50.04647 | 8.56930 | 360 ft | 0 kts | 204° |
| 2026-05-04 16:37 | 50.04643 | 8.56927 | 363 ft | 2 kts | 203° |
| 2026-05-04 16:37 | 50.04612 | 8.56914 | 356 ft | 8 kts | 194° |
| 2026-05-04 16:37 | 50.04473 | 8.56861 | 359 ft | 12 kts | 199° |
| 2026-05-04 16:38 | 50.04392 | 8.56578 | 358 ft | 18 kts | 249° |
| 2026-05-04 16:39 | 50.04241 | 8.55946 | 355 ft | 23 kts | 249° |
| 2026-05-04 16:39 | 50.04124 | 8.55458 | 358 ft | 25 kts | 250° |
| 2026-05-04 16:40 | 50.04009 | 8.54975 | 361 ft | 23 kts | 250° |
| 2026-05-04 16:40 | 50.03887 | 8.54469 | 352 ft | 25 kts | 250° |
| 2026-05-04 16:41 | 50.03788 | 8.54177 | 351 ft | 16 kts | 249° |
| 2026-05-04 16:41 | 50.03658 | 8.53633 | 350 ft | 19 kts | 248° |
| 2026-05-04 16:42 | 50.03505 | 8.53005 | 335 ft | 22 kts | 249° |
| 2026-05-04 16:43 | 50.03434 | 8.52735 | 333 ft | 2 kts | 249° |
| 2026-05-04 16:43 | 50.03433 | 8.52732 | 331 ft | 0 kts | 249° |
| 2026-05-04 16:44 | 50.03336 | 8.52594 | 336 ft | 0 kts | 180° |
| 2026-05-04 16:47 | 50.02946 | 8.52597 | 335 ft | 92 kts | 180° |
| 2026-05-04 16:48 | 49.99716 | 8.52670 | 1521 ft | 168 kts | 183° |
| 2026-05-04 16:48 | 49.98505 | 8.52746 | 2099 ft | 183 kts | 183° |
| 2026-05-04 16:49 | 49.95693 | 8.52909 | 3247 ft | 215 kts | 181° |
| 2026-05-04 16:49 | 49.92653 | 8.53119 | 4051 ft | 220 kts | 182° |
| 2026-05-04 16:50 | 49.89578 | 8.53339 | 4057 ft | 220 kts | 181° |
| 2026-05-04 16:50 | 49.86532 | 8.53577 | 4685 ft | 217 kts | 181° |
| 2026-05-04 16:51 | 49.83292 | 8.53791 | 5939 ft | 252 kts | 181° |
| 2026-05-04 16:51 | 49.81526 | 8.53903 | 6874 ft | 253 kts | 180° |
| 2026-05-04 16:51 | 49.77959 | 8.54151 | 8743 ft | 258 kts | 183° |
| 2026-05-04 16:52 | 49.74384 | 8.53693 | 10589 ft | 262 kts | 188° |
| 2026-05-04 16:52 | 49.72538 | 8.53422 | 11238 ft | 276 kts | 187° |
| 2026-05-04 16:53 | 49.68395 | 8.52833 | 11867 ft | 321 kts | 187° |
| 2026-05-04 16:53 | 49.61488 | 8.51933 | 13744 ft | 339 kts | 187° |
| 2026-05-04 16:54 | 49.59125 | 8.51633 | 14418 ft | 343 kts | 187° |
| 2026-05-04 16:55 | 49.49409 | 8.50351 | 16974 ft | 360 kts | 188° |
| 2026-05-04 16:55 | 49.44362 | 8.49686 | 18230 ft | 368 kts | 188° |
| 2026-05-04 16:56 | 49.39208 | 8.49016 | 19311 ft | 375 kts | 187° |
| 2026-05-04 16:56 | 49.31298 | 8.48490 | 20940 ft | 385 kts | 182° |
| 2026-05-04 16:57 | 49.28606 | 8.48545 | 21462 ft | 388 kts | 181° |
| 2026-05-04 16:57 | 49.23204 | 8.48723 | 22486 ft | 394 kts | 181° |
| 2026-05-04 16:58 | 49.14883 | 8.48944 | 22977 ft | 404 kts | 181° |
| 2026-05-04 16:58 | 49.12068 | 8.49002 | 22966 ft | 405 kts | 181° |
| 2026-05-04 16:59 | 49.06432 | 8.49115 | 22972 ft | 405 kts | 181° |
| 2026-05-04 17:00 | 48.95181 | 8.49331 | 22974 ft | 405 kts | 181° |
| 2026-05-04 17:00 | 48.86719 | 8.49506 | 22972 ft | 405 kts | 181° |
| 2026-05-04 17:01 | 48.81117 | 8.49618 | 22977 ft | 405 kts | 181° |
| 2026-05-04 17:01 | 48.75480 | 8.49736 | 22976 ft | 405 kts | 181° |
| 2026-05-04 17:02 | 48.69839 | 8.49849 | 22975 ft | 405 kts | 181° |
| 2026-05-04 17:02 | 48.64202 | 8.49954 | 22968 ft | 405 kts | 181° |
| 2026-05-04 17:03 | 48.61379 | 8.50009 | 22968 ft | 406 kts | 181° |
| 2026-05-04 17:03 | 48.58558 | 8.50069 | 22965 ft | 406 kts | 181° |
| 2026-05-04 17:03 | 48.52955 | 8.50186 | 22965 ft | 406 kts | 181° |
| 2026-05-04 17:04 | 48.47305 | 8.50301 | 22964 ft | 406 kts | 181° |
| 2026-05-04 17:04 | 48.41659 | 8.50422 | 22966 ft | 406 kts | 181° |
| 2026-05-04 17:05 | 48.36004 | 8.50540 | 22960 ft | 406 kts | 181° |
| 2026-05-04 17:05 | 48.30398 | 8.50641 | 22961 ft | 406 kts | 181° |
| 2026-05-04 17:06 | 48.24747 | 8.50745 | 22954 ft | 406 kts | 181° |
| 2026-05-04 17:06 | 48.21920 | 8.50800 | 22953 ft | 407 kts | 181° |
| 2026-05-04 17:07 | 48.16258 | 8.50923 | 22953 ft | 407 kts | 181° |
| 2026-05-04 17:07 | 48.15303 | 8.50944 | 22954 ft | 407 kts | 181° |
| 2026-05-04 17:07 | 48.10596 | 8.51044 | 22954 ft | 407 kts | 181° |
| 2026-05-04 17:07 | 48.07764 | 8.51095 | 22956 ft | 407 kts | 181° |
| 2026-05-04 17:08 | 48.04966 | 8.51144 | 22953 ft | 407 kts | 181° |
| 2026-05-04 17:08 | 47.99469 | 8.52181 | 22059 ft | 400 kts | 161° |
| 2026-05-04 17:08 | 47.97064 | 8.54255 | 21460 ft | 402 kts | 145° |
| 2026-05-04 17:09 | 47.94893 | 8.56880 | 20832 ft | 401 kts | 144° |
| 2026-05-04 17:09 | 47.92744 | 8.59504 | 20244 ft | 398 kts | 143° |
| 2026-05-04 17:09 | 47.91331 | 8.61235 | 19879 ft | 396 kts | 143° |
| 2026-05-04 17:10 | 47.88496 | 8.64707 | 19153 ft | 393 kts | 143° |
| 2026-05-04 17:10 | 47.82206 | 8.72333 | 17587 ft | 384 kts | 144° |
| 2026-05-04 17:11 | 47.80139 | 8.74828 | 17078 ft | 380 kts | 144° |
| 2026-05-04 17:11 | 47.78788 | 8.76458 | 16723 ft | 375 kts | 144° |
| 2026-05-04 17:11 | 47.74813 | 8.81268 | 14935 ft | 363 kts | 143° |
| 2026-05-04 17:12 | 47.72856 | 8.83629 | 14341 ft | 362 kts | 143° |
| 2026-05-04 17:12 | 47.68376 | 8.89019 | 13208 ft | 349 kts | 143° |
| 2026-05-04 17:13 | 47.63397 | 8.94982 | 11449 ft | 341 kts | 143° |
| 2026-05-04 17:14 | 47.58114 | 9.01314 | 10829 ft | 299 kts | 143° |
| 2026-05-04 17:14 | 47.56544 | 9.03199 | 10565 ft | 282 kts | 143° |
| 2026-05-04 17:14 | 47.53394 | 9.05746 | 10205 ft | 245 kts | 167° |
| 2026-05-04 17:15 | 47.51725 | 9.06092 | 9888 ft | 241 kts | 179° |
| 2026-05-04 17:15 | 47.48421 | 9.05638 | 8818 ft | 238 kts | 186° |
| 2026-05-04 17:16 | 47.45175 | 9.05006 | 7814 ft | 237 kts | 198° |
| 2026-05-04 17:16 | 47.42556 | 8.99941 | 7535 ft | 210 kts | 265° |
| 2026-05-04 17:17 | 47.42670 | 8.97814 | 7255 ft | 206 kts | 274° |
| 2026-05-04 17:17 | 47.43144 | 8.91642 | 6400 ft | 198 kts | 275° |
| 2026-05-04 17:18 | 47.43289 | 8.89627 | 6129 ft | 197 kts | 276° |
| 2026-05-04 17:18 | 47.43570 | 8.85664 | 5560 ft | 194 kts | 276° |
| 2026-05-04 17:19 | 47.43855 | 8.81764 | 5020 ft | 188 kts | 276° |
| 2026-05-04 17:19 | 47.44133 | 8.77979 | 4460 ft | 183 kts | 276° |
| 2026-05-04 17:20 | 47.44401 | 8.74268 | 3917 ft | 176 kts | 275° |
| 2026-05-04 17:20 | 47.44658 | 8.70877 | 3432 ft | 158 kts | 276° |
| 2026-05-04 17:20 | 47.44772 | 8.69301 | 3243 ft | 144 kts | 275° |
| 2026-05-04 17:21 | 47.44977 | 8.66503 | 2813 ft | 134 kts | 275° |
| 2026-05-04 17:21 | 47.45167 | 8.63787 | 2448 ft | 134 kts | 275° |
| 2026-05-04 17:22 | 47.45266 | 8.62420 | 2271 ft | 133 kts | 277° |
| 2026-05-04 17:22 | 47.45361 | 8.61055 | 2063 ft | 134 kts | 278° |
| 2026-05-04 17:23 | 47.45661 | 8.57033 | 1470 ft | 130 kts | 275° |
| 2026-05-04 17:23 | 47.45746 | 8.55803 | 1414 ft | 102 kts | 277° |
| 2026-05-04 17:23 | 47.45827 | 8.54628 | 1389 ft | 27 kts | 268° |
| 2026-05-04 17:24 | 47.45793 | 8.54392 | 1386 ft | 22 kts | 249° |
| 2026-05-04 17:24 | 47.45583 | 8.54412 | 1386 ft | 15 kts | 108° |
| 2026-05-04 17:25 | 47.45554 | 8.54545 | 1388 ft | 13 kts | 108° |
| 2026-05-04 17:25 | 47.45482 | 8.54867 | 1395 ft | 13 kts | 110° |
| 2026-05-04 17:26 | 47.45413 | 8.55168 | 1400 ft | 20 kts | 107° |
| 2026-05-04 17:26 | 47.45293 | 8.55518 | 1410 ft | 8 kts | 118° |
| 2026-05-04 17:27 | 47.45270 | 8.55664 | 1407 ft | 9 kts | 96° |
| 2026-05-04 17:27 | 47.45218 | 8.55756 | 1413 ft | 6 kts | 187° |
| 2026-05-04 17:28 | 47.45186 | 8.55751 | 1412 ft | 0 kts | 186° |
| 2026-05-04 17:29 | 47.45184 | 8.55751 | 1411 ft | 0 kts | 186° |